< < Back
Terminal Aerodrome Forecast


Current Version              Previous Versions:   1  2  3  4  5  6  7  8  9  

Terminal Aerodrome Forecast

016
FTUS44 KBMX 250500
TAFTCL
TAF
KTCL 250520Z 2506/2606 25015G25KT 4SM TSRA SCT025CB OVC050
     FM250700 27010G20KT 4SM SHRA VCTS SCT007CB BKN020
     FM250900 28008KT P6SM OVC020
     FM251500 29010KT P6SM BKN050
     FM252100 31009KT P6SM SCT250
     FM260000 33005KT P6SM SKC=

Latest METAR

718
SAUS70 KWBC 250700 RRF
MTRTCL
METAR KTCL 250653Z AUTO 19007KT 7SM FEW021 BKN050 BKN065 19/18 A2985 RMK
AO2 TSE0556B00E15 SLP105 T01890178


USA.gov is the U.S. government's official web portal to all federal, state and local government web resources and services.